sensor_id;sensor_type;location;lat;lon;timestamp;temperature;humidity
18207;DHT22;9229;52.354;20.886;2023-05-07T00:01:21;6.40;99.90
18207;DHT22;9229;52.354;20.886;2023-05-07T00:06:23;6.40;99.90
18207;DHT22;9229;52.354;20.886;2023-05-07T00:11:26;6.30;99.90
18207;DHT22;9229;52.354;20.886;2023-05-07T00:16:29;6.30;99.90
18207;DHT22;9229;52.354;20.886;2023-05-07T00:21:32;6.30;99.90
18207;DHT22;9229;52.354;20.886;2023-05-07T00:26:34;6.30;99.90
18207;DHT22;9229;52.354;20.886;2023-05-07T00:31:37;6.30;99.90
18207;DHT22;9229;52.354;20.886;2023-05-07T00:36:39;6.30;99.90
18207;DHT22;9229;52.354;20.886;2023-05-07T00:41:41;6.30;99.90
18207;DHT22;9229;52.354;20.886;2023-05-07T00:46:44;6.30;99.90
18207;DHT22;9229;52.354;20.886;2023-05-07T00:51:49;6.30;99.90
18207;DHT22;9229;52.354;20.886;2023-05-07T00:56:52;6.30;99.90
18207;DHT22;9229;52.354;20.886;2023-05-07T01:01:55;6.30;99.90
18207;DHT22;9229;52.354;20.886;2023-05-07T01:06:58;6.20;99.90
18207;DHT22;9229;52.354;20.886;2023-05-07T01:12:00;6.30;99.90
18207;DHT22;9229;52.354;20.886;2023-05-07T01:17:05;6.20;99.90
18207;DHT22;9229;52.354;20.886;2023-05-07T01:22:09;6.20;99.90
18207;DHT22;9229;52.354;20.886;2023-05-07T01:27:22;6.20;99.90
18207;DHT22;9229;52.354;20.886;2023-05-07T01:32:31;6.20;99.90
18207;DHT22;9229;52.354;20.886;2023-05-07T01:37:35;6.10;99.90
18207;DHT22;9229;52.354;20.886;2023-05-07T01:42:39;6.10;99.90
18207;DHT22;9229;52.354;20.886;2023-05-07T01:47:44;6.10;99.90
18207;DHT22;9229;52.354;20.886;2023-05-07T01:52:47;6.10;99.90
18207;DHT22;9229;52.354;20.886;2023-05-07T01:57:50;6.10;99.90
18207;DHT22;9229;52.354;20.886;2023-05-07T02:02:52;6.10;99.90
18207;DHT22;9229;52.354;20.886;2023-05-07T02:08:04;6.00;99.90
18207;DHT22;9229;52.354;20.886;2023-05-07T02:13:08;6.00;99.90
18207;DHT22;9229;52.354;20.886;2023-05-07T02:18:10;6.00;99.90
18207;DHT22;9229;52.354;20.886;2023-05-07T02:23:12;6.00;99.90
18207;DHT22;9229;52.354;20.886;2023-05-07T02:28:16;5.90;99.90
18207;DHT22;9229;52.354;20.886;2023-05-07T02:33:34;6.00;99.90
18207;DHT22;9229;52.354;20.886;2023-05-07T02:38:40;5.90;99.90
18207;DHT22;9229;52.354;20.886;2023-05-07T02:43:43;5.90;99.90
18207;DHT22;9229;52.354;20.886;2023-05-07T02:48:46;5.90;99.90
18207;DHT22;9229;52.354;20.886;2023-05-07T02:53:48;5.90;99.90
18207;DHT22;9229;52.354;20.886;2023-05-07T02:58:52;5.80;99.90
18207;DHT22;9229;52.354;20.886;2023-05-07T03:03:56;5.90;99.90
18207;DHT22;9229;52.354;20.886;2023-05-07T03:08:58;5.90;99.90
18207;DHT22;9229;52.354;20.886;2023-05-07T03:14:01;5.90;99.90
18207;DHT22;9229;52.354;20.886;2023-05-07T03:19:03;5.90;99.90
18207;DHT22;9229;52.354;20.886;2023-05-07T03:24:05;6.00;99.90
18207;DHT22;9229;52.354;20.886;2023-05-07T03:29:09;6.00;99.90
18207;DHT22;9229;52.354;20.886;2023-05-07T03:34:11;6.10;99.90
18207;DHT22;9229;52.354;20.886;2023-05-07T03:39:14;6.10;99.90
18207;DHT22;9229;52.354;20.886;2023-05-07T03:44:18;6.10;99.90
18207;DHT22;9229;52.354;20.886;2023-05-07T03:49:21;6.10;99.90
18207;DHT22;9229;52.354;20.886;2023-05-07T03:54:23;6.10;99.90
18207;DHT22;9229;52.354;20.886;2023-05-07T03:59:28;6.10;99.90
18207;DHT22;9229;52.354;20.886;2023-05-07T04:04:31;6.20;99.90
18207;DHT22;9229;52.354;20.886;2023-05-07T04:09:34;6.20;99.90
18207;DHT22;9229;52.354;20.886;2023-05-07T04:14:38;6.20;99.90
18207;DHT22;9229;52.354;20.886;2023-05-07T04:19:40;6.30;99.90
18207;DHT22;9229;52.354;20.886;2023-05-07T04:24:46;6.30;99.90
18207;DHT22;9229;52.354;20.886;2023-05-07T04:29:50;6.40;99.90
18207;DHT22;9229;52.354;20.886;2023-05-07T04:34:53;6.50;99.90
18207;DHT22;9229;52.354;20.886;2023-05-07T04:39:55;6.60;99.90
18207;DHT22;9229;52.354;20.886;2023-05-07T04:45:00;6.60;99.90
18207;DHT22;9229;52.354;20.886;2023-05-07T04:50:03;6.70;99.90
18207;DHT22;9229;52.354;20.886;2023-05-07T04:55:06;6.90;99.90
18207;DHT22;9229;52.354;20.886;2023-05-07T05:00:14;7.10;99.90
18207;DHT22;9229;52.354;20.886;2023-05-07T05:05:19;7.20;99.90
18207;DHT22;9229;52.354;20.886;2023-05-07T05:10:24;7.50;99.90
18207;DHT22;9229;52.354;20.886;2023-05-07T05:15:28;7.70;99.90
18207;DHT22;9229;52.354;20.886;2023-05-07T05:20:30;7.80;99.90
18207;DHT22;9229;52.354;20.886;2023-05-07T05:25:32;7.80;99.90
18207;DHT22;9229;52.354;20.886;2023-05-07T05:30:37;7.90;99.90
18207;DHT22;9229;52.354;20.886;2023-05-07T05:35:39;7.80;99.90
18207;DHT22;9229;52.354;20.886;2023-05-07T05:40:45;7.80;99.90
18207;DHT22;9229;52.354;20.886;2023-05-07T05:45:49;7.70;99.90
18207;DHT22;9229;52.354;20.886;2023-05-07T05:50:52;7.70;99.90
18207;DHT22;9229;52.354;20.886;2023-05-07T05:55:54;7.70;99.90
18207;DHT22;9229;52.354;20.886;2023-05-07T06:00:58;7.70;99.90
18207;DHT22;9229;52.354;20.886;2023-05-07T06:06:02;7.90;99.90
18207;DHT22;9229;52.354;20.886;2023-05-07T06:11:05;8.20;99.90
18207;DHT22;9229;52.354;20.886;2023-05-07T06:16:12;8.30;99.90
18207;DHT22;9229;52.354;20.886;2023-05-07T06:21:14;8.40;99.90
18207;DHT22;9229;52.354;20.886;2023-05-07T06:26:20;8.40;99.90
18207;DHT22;9229;52.354;20.886;2023-05-07T06:31:29;8.60;99.90
18207;DHT22;9229;52.354;20.886;2023-05-07T06:36:37;8.70;99.90
18207;DHT22;9229;52.354;20.886;2023-05-07T06:42:06;8.90;99.90
18207;DHT22;9229;52.354;20.886;2023-05-07T06:47:16;9.10;99.90
18207;DHT22;9229;52.354;20.886;2023-05-07T06:52:23;9.20;99.90
18207;DHT22;9229;52.354;20.886;2023-05-07T06:57:25;9.10;99.90
18207;DHT22;9229;52.354;20.886;2023-05-07T07:02:29;9.20;99.90
18207;DHT22;9229;52.354;20.886;2023-05-07T07:07:31;9.50;99.90
18207;DHT22;9229;52.354;20.886;2023-05-07T07:12:34;9.50;99.90
18207;DHT22;9229;52.354;20.886;2023-05-07T07:17:38;9.70;99.90
18207;DHT22;9229;52.354;20.886;2023-05-07T07:22:40;10.10;99.90
18207;DHT22;9229;52.354;20.886;2023-05-07T07:27:43;10.30;99.90
18207;DHT22;9229;52.354;20.886;2023-05-07T07:32:49;10.30;99.90
18207;DHT22;9229;52.354;20.886;2023-05-07T07:37:54;10.20;99.90
18207;DHT22;9229;52.354;20.886;2023-05-07T07:43:01;10.20;99.90
18207;DHT22;9229;52.354;20.886;2023-05-07T07:48:06;10.20;99.90
18207;DHT22;9229;52.354;20.886;2023-05-07T07:53:11;10.30;99.90
18207;DHT22;9229;52.354;20.886;2023-05-07T07:58:16;10.60;99.90
18207;DHT22;9229;52.354;20.886;2023-05-07T08:03:20;10.90;99.90
18207;DHT22;9229;52.354;20.886;2023-05-07T08:08:26;11.10;99.90
18207;DHT22;9229;52.354;20.886;2023-05-07T08:13:29;11.30;99.90
18207;DHT22;9229;52.354;20.886;2023-05-07T08:18:35;11.40;99.90
18207;DHT22;9229;52.354;20.886;2023-05-07T08:23:37;11.60;99.90
18207;DHT22;9229;52.354;20.886;2023-05-07T08:28:41;11.70;99.90
18207;DHT22;9229;52.354;20.886;2023-05-07T08:33:45;12.00;99.90
18207;DHT22;9229;52.354;20.886;2023-05-07T08:38:47;12.10;99.90
18207;DHT22;9229;52.354;20.886;2023-05-07T08:43:51;12.10;99.90
18207;DHT22;9229;52.354;20.886;2023-05-07T08:48:54;12.20;99.90
18207;DHT22;9229;52.354;20.886;2023-05-07T08:53:57;12.50;99.90
18207;DHT22;9229;52.354;20.886;2023-05-07T08:59:04;12.90;99.90
18207;DHT22;9229;52.354;20.886;2023-05-07T09:04:08;12.60;99.90
18207;DHT22;9229;52.354;20.886;2023-05-07T09:09:14;13.00;99.90
18207;DHT22;9229;52.354;20.886;2023-05-07T09:14:21;13.60;99.90
18207;DHT22;9229;52.354;20.886;2023-05-07T09:19:26;14.20;97.70
18207;DHT22;9229;52.354;20.886;2023-05-07T09:24:30;14.60;93.70
18207;DHT22;9229;52.354;20.886;2023-05-07T09:29:39;14.30;93.90
18207;DHT22;9229;52.354;20.886;2023-05-07T09:34:43;14.20;92.20
18207;DHT22;9229;52.354;20.886;2023-05-07T09:39:49;13.90;92.10
18207;DHT22;9229;52.354;20.886;2023-05-07T09:44:59;13.80;91.20
18207;DHT22;9229;52.354;20.886;2023-05-07T09:50:08;16.20;90.50
18207;DHT22;9229;52.354;20.886;2023-05-07T09:55:15;16.00;81.60
18207;DHT22;9229;52.354;20.886;2023-05-07T10:00:18;15.10;84.70
18207;DHT22;9229;52.354;20.886;2023-05-07T10:05:25;15.50;86.70
18207;DHT22;9229;52.354;20.886;2023-05-07T10:10:33;17.50;74.90
18207;DHT22;9229;52.354;20.886;2023-05-07T10:15:37;19.50;67.00
18207;DHT22;9229;52.354;20.886;2023-05-07T10:26:59;17.00;68.40
18207;DHT22;9229;52.354;20.886;2023-05-07T10:32:15;15.90;71.00
18207;DHT22;9229;52.354;20.886;2023-05-07T10:37:24;15.50;72.80
18207;DHT22;9229;52.354;20.886;2023-05-07T10:42:28;16.50;72.70
18207;DHT22;9229;52.354;20.886;2023-05-07T10:47:31;18.60;64.70
18207;DHT22;9229;52.354;20.886;2023-05-07T10:52:36;18.10;62.30
18207;DHT22;9229;52.354;20.886;2023-05-07T10:57:48;17.50;63.60
18207;DHT22;9229;52.354;20.886;2023-05-07T11:03:07;19.00;60.60
18207;DHT22;9229;52.354;20.886;2023-05-07T11:08:53;17.60;61.70
18207;DHT22;9229;52.354;20.886;2023-05-07T11:14:08;16.70;66.90
18207;DHT22;9229;52.354;20.886;2023-05-07T11:19:18;16.30;65.20
18207;DHT22;9229;52.354;20.886;2023-05-07T11:24:40;16.10;66.50
18207;DHT22;9229;52.354;20.886;2023-05-07T11:29:53;15.80;67.00
18207;DHT22;9229;52.354;20.886;2023-05-07T11:34:57;15.10;67.30
18207;DHT22;9229;52.354;20.886;2023-05-07T11:40:03;14.70;71.00
18207;DHT22;9229;52.354;20.886;2023-05-07T11:45:08;14.40;71.40
18207;DHT22;9229;52.354;20.886;2023-05-07T11:50:11;14.20;72.50
18207;DHT22;9229;52.354;20.886;2023-05-07T11:55:13;14.30;73.20
18207;DHT22;9229;52.354;20.886;2023-05-07T12:00:18;14.90;73.20
18207;DHT22;9229;52.354;20.886;2023-05-07T12:05:20;15.70;70.90
18207;DHT22;9229;52.354;20.886;2023-05-07T12:10:22;16.00;69.60
18207;DHT22;9229;52.354;20.886;2023-05-07T12:15:27;15.80;66.70
18207;DHT22;9229;52.354;20.886;2023-05-07T12:20:29;15.80;67.40
18207;DHT22;9229;52.354;20.886;2023-05-07T12:25:31;16.10;67.60
18207;DHT22;9229;52.354;20.886;2023-05-07T12:30:39;16.20;64.80
18207;DHT22;9229;52.354;20.886;2023-05-07T12:35:43;15.90;65.00
18207;DHT22;9229;52.354;20.886;2023-05-07T12:40:46;15.40;66.50
18207;DHT22;9229;52.354;20.886;2023-05-07T12:45:54;16.80;68.00
18207;DHT22;9229;52.354;20.886;2023-05-07T12:50:58;16.80;63.20
18207;DHT22;9229;52.354;20.886;2023-05-07T12:56:01;17.60;64.10
18207;DHT22;9229;52.354;20.886;2023-05-07T13:01:08;19.00;63.00
18207;DHT22;9229;52.354;20.886;2023-05-07T13:06:20;20.00;57.70
18207;DHT22;9229;52.354;20.886;2023-05-07T13:11:23;19.20;58.90
18207;DHT22;9229;52.354;20.886;2023-05-07T13:16:27;20.00;57.50
18207;DHT22;9229;52.354;20.886;2023-05-07T13:21:29;20.50;55.20
18207;DHT22;9229;52.354;20.886;2023-05-07T13:26:32;20.80;54.50
18207;DHT22;9229;52.354;20.886;2023-05-07T13:31:35;20.70;53.10
18207;DHT22;9229;52.354;20.886;2023-05-07T13:36:37;20.60;52.50
18207;DHT22;9229;52.354;20.886;2023-05-07T13:41:40;20.70;53.10
18207;DHT22;9229;52.354;20.886;2023-05-07T13:46:43;20.50;52.50
18207;DHT22;9229;52.354;20.886;2023-05-07T13:51:45;20.00;52.60
18207;DHT22;9229;52.354;20.886;2023-05-07T13:56:50;19.60;52.10
18207;DHT22;9229;52.354;20.886;2023-05-07T14:01:56;18.20;54.60
18207;DHT22;9229;52.354;20.886;2023-05-07T14:06:58;16.90;55.10
18207;DHT22;9229;52.354;20.886;2023-05-07T14:12:00;15.80;57.10
18207;DHT22;9229;52.354;20.886;2023-05-07T14:17:03;15.10;59.20
18207;DHT22;9229;52.354;20.886;2023-05-07T14:22:05;14.60;59.60
18207;DHT22;9229;52.354;20.886;2023-05-07T14:27:07;14.30;59.60
18207;DHT22;9229;52.354;20.886;2023-05-07T14:32:11;14.10;62.80
18207;DHT22;9229;52.354;20.886;2023-05-07T14:37:14;13.80;61.50
18207;DHT22;9229;52.354;20.886;2023-05-07T14:42:17;13.80;63.10
18207;DHT22;9229;52.354;20.886;2023-05-07T14:47:23;13.70;63.10
18207;DHT22;9229;52.354;20.886;2023-05-07T14:52:35;13.60;64.10
18207;DHT22;9229;52.354;20.886;2023-05-07T14:57:44;13.70;64.10
18207;DHT22;9229;52.354;20.886;2023-05-07T15:08:00;13.30;64.00
18207;DHT22;9229;52.354;20.886;2023-05-07T15:13:01;13.20;65.00
18207;DHT22;9229;52.354;20.886;2023-05-07T15:18:05;13.20;66.10
18207;DHT22;9229;52.354;20.886;2023-05-07T15:23:08;13.20;64.40
18207;DHT22;9229;52.354;20.886;2023-05-07T15:28:13;13.20;64.50
18207;DHT22;9229;52.354;20.886;2023-05-07T15:33:16;13.10;65.70
18207;DHT22;9229;52.354;20.886;2023-05-07T15:38:18;13.10;66.60
18207;DHT22;9229;52.354;20.886;2023-05-07T15:43:23;13.10;66.60
18207;DHT22;9229;52.354;20.886;2023-05-07T15:48:28;13.10;66.30
18207;DHT22;9229;52.354;20.886;2023-05-07T15:53:31;13.10;66.70
18207;DHT22;9229;52.354;20.886;2023-05-07T15:58:34;13.10;66.00
18207;DHT22;9229;52.354;20.886;2023-05-07T16:03:38;13.10;66.60
18207;DHT22;9229;52.354;20.886;2023-05-07T16:08:40;13.00;67.20
18207;DHT22;9229;52.354;20.886;2023-05-07T16:13:46;13.00;67.40
18207;DHT22;9229;52.354;20.886;2023-05-07T16:18:50;13.00;66.40
18207;DHT22;9229;52.354;20.886;2023-05-07T16:23:52;13.00;66.80
18207;DHT22;9229;52.354;20.886;2023-05-07T16:28:57;12.90;66.90
18207;DHT22;9229;52.354;20.886;2023-05-07T16:34:00;12.90;67.30
18207;DHT22;9229;52.354;20.886;2023-05-07T16:39:03;12.80;67.70
18207;DHT22;9229;52.354;20.886;2023-05-07T16:44:06;12.80;67.00
18207;DHT22;9229;52.354;20.886;2023-05-07T16:49:11;12.70;67.40
18207;DHT22;9229;52.354;20.886;2023-05-07T16:54:13;12.60;68.90
18207;DHT22;9229;52.354;20.886;2023-05-07T16:59:15;12.50;67.70
18207;DHT22;9229;52.354;20.886;2023-05-07T17:04:19;12.30;69.00
18207;DHT22;9229;52.354;20.886;2023-05-07T17:09:21;12.30;68.80
18207;DHT22;9229;52.354;20.886;2023-05-07T17:20:52;12.00;69.50
18207;DHT22;9229;52.354;20.886;2023-05-07T17:25:54;11.90;70.10
18207;DHT22;9229;52.354;20.886;2023-05-07T17:30:57;11.80;70.20
18207;DHT22;9229;52.354;20.886;2023-05-07T17:36:14;11.70;70.80
18207;DHT22;9229;52.354;20.886;2023-05-07T17:41:32;11.50;72.40
18207;DHT22;9229;52.354;20.886;2023-05-07T17:47:16;11.40;73.30
18207;DHT22;9229;52.354;20.886;2023-05-07T18:04:29;10.90;75.90
18207;DHT22;9229;52.354;20.886;2023-05-07T18:09:39;10.70;76.90
18207;DHT22;9229;52.354;20.886;2023-05-07T18:15:00;10.60;77.60
18207;DHT22;9229;52.354;20.886;2023-05-07T18:20:17;10.30;78.50
18207;DHT22;9229;52.354;20.886;2023-05-07T18:25:20;10.10;79.40
18207;DHT22;9229;52.354;20.886;2023-05-07T18:35:51;9.80;82.70
18207;DHT22;9229;52.354;20.886;2023-05-07T18:41:05;9.60;83.40
18207;DHT22;9229;52.354;20.886;2023-05-07T18:46:07;9.50;84.30
18207;DHT22;9229;52.354;20.886;2023-05-07T18:51:11;9.30;85.40
18207;DHT22;9229;52.354;20.886;2023-05-07T18:56:13;9.20;86.40
18207;DHT22;9229;52.354;20.886;2023-05-07T19:01:15;9.00;87.20
18207;DHT22;9229;52.354;20.886;2023-05-07T19:06:20;9.00;88.80
18207;DHT22;9229;52.354;20.886;2023-05-07T19:11:22;8.70;90.10
18207;DHT22;9229;52.354;20.886;2023-05-07T19:16:24;8.50;90.60
18207;DHT22;9229;52.354;20.886;2023-05-07T19:21:27;8.40;91.20
18207;DHT22;9229;52.354;20.886;2023-05-07T19:26:52;8.30;91.80
18207;DHT22;9229;52.354;20.886;2023-05-07T19:32:08;8.20;92.60
18207;DHT22;9229;52.354;20.886;2023-05-07T19:37:55;8.10;93.40
18207;DHT22;9229;52.354;20.886;2023-05-07T19:43:01;7.90;93.80
18207;DHT22;9229;52.354;20.886;2023-05-07T19:48:04;7.70;94.50
18207;DHT22;9229;52.354;20.886;2023-05-07T19:53:10;7.60;95.40
18207;DHT22;9229;52.354;20.886;2023-05-07T19:58:14;7.40;96.30
18207;DHT22;9229;52.354;20.886;2023-05-07T20:03:16;7.30;97.10
18207;DHT22;9229;52.354;20.886;2023-05-07T20:08:20;7.10;98.50
18207;DHT22;9229;52.354;20.886;2023-05-07T20:13:23;7.00;99.90
18207;DHT22;9229;52.354;20.886;2023-05-07T20:18:28;6.90;99.90
18207;DHT22;9229;52.354;20.886;2023-05-07T20:23:32;6.70;99.90
18207;DHT22;9229;52.354;20.886;2023-05-07T20:28:34;6.60;99.90
18207;DHT22;9229;52.354;20.886;2023-05-07T20:33:36;6.50;99.90
18207;DHT22;9229;52.354;20.886;2023-05-07T20:38:43;6.40;99.90
18207;DHT22;9229;52.354;20.886;2023-05-07T20:43:46;6.20;99.90
18207;DHT22;9229;52.354;20.886;2023-05-07T20:48:48;6.00;99.90
18207;DHT22;9229;52.354;20.886;2023-05-07T20:53:56;6.00;99.90
18207;DHT22;9229;52.354;20.886;2023-05-07T20:58:58;5.90;99.90
18207;DHT22;9229;52.354;20.886;2023-05-07T21:04:02;5.80;99.90
18207;DHT22;9229;52.354;20.886;2023-05-07T21:09:06;5.70;99.90
18207;DHT22;9229;52.354;20.886;2023-05-07T21:14:08;5.60;99.90
18207;DHT22;9229;52.354;20.886;2023-05-07T21:19:10;5.40;99.90
18207;DHT22;9229;52.354;20.886;2023-05-07T21:24:14;5.30;99.90
18207;DHT22;9229;52.354;20.886;2023-05-07T21:29:16;5.20;99.90
18207;DHT22;9229;52.354;20.886;2023-05-07T21:34:19;5.20;99.90
18207;DHT22;9229;52.354;20.886;2023-05-07T21:39:22;5.10;99.90
18207;DHT22;9229;52.354;20.886;2023-05-07T21:44:27;5.00;99.90
18207;DHT22;9229;52.354;20.886;2023-05-07T21:49:29;4.90;99.90
18207;DHT22;9229;52.354;20.886;2023-05-07T21:54:34;4.80;99.90
18207;DHT22;9229;52.354;20.886;2023-05-07T21:59:36;4.70;99.90
18207;DHT22;9229;52.354;20.886;2023-05-07T22:04:39;4.50;99.90
18207;DHT22;9229;52.354;20.886;2023-05-07T22:09:44;4.40;99.90
18207;DHT22;9229;52.354;20.886;2023-05-07T22:14:46;4.40;99.90
18207;DHT22;9229;52.354;20.886;2023-05-07T22:19:48;4.20;99.90
18207;DHT22;9229;52.354;20.886;2023-05-07T22:24:52;4.20;99.90
18207;DHT22;9229;52.354;20.886;2023-05-07T22:29:58;4.10;99.90
18207;DHT22;9229;52.354;20.886;2023-05-07T22:35:00;4.00;99.90
18207;DHT22;9229;52.354;20.886;2023-05-07T22:40:05;3.90;99.90
18207;DHT22;9229;52.354;20.886;2023-05-07T22:45:08;3.80;99.90
18207;DHT22;9229;52.354;20.886;2023-05-07T22:50:11;3.80;99.90
18207;DHT22;9229;52.354;20.886;2023-05-07T22:55:14;3.70;99.90
18207;DHT22;9229;52.354;20.886;2023-05-07T23:00:17;3.60;99.90
18207;DHT22;9229;52.354;20.886;2023-05-07T23:05:19;3.60;99.90
18207;DHT22;9229;52.354;20.886;2023-05-07T23:10:24;3.50;99.90
18207;DHT22;9229;52.354;20.886;2023-05-07T23:15:26;3.50;99.90
18207;DHT22;9229;52.354;20.886;2023-05-07T23:20:28;3.40;99.90
18207;DHT22;9229;52.354;20.886;2023-05-07T23:25:31;3.30;99.90
18207;DHT22;9229;52.354;20.886;2023-05-07T23:30:33;3.30;99.90
18207;DHT22;9229;52.354;20.886;2023-05-07T23:35:37;3.30;99.90
18207;DHT22;9229;52.354;20.886;2023-05-07T23:40:40;3.10;99.90
18207;DHT22;9229;52.354;20.886;2023-05-07T23:45:45;3.10;99.90
18207;DHT22;9229;52.354;20.886;2023-05-07T23:50:47;3.10;99.90
18207;DHT22;9229;52.354;20.886;2023-05-07T23:55:51;3.10;99.90
